Time;durP1;ratioP1;P1;durP2;ratioP2;P2;SDS_P1;SDS_P2;PMS_P1;PMS_P2;Temp;Humidity;BMP_temperature;BMP_pressure;BME280_temperature;BME280_humidity;BME280_pressure;Samples;Min_cycle;Max_cycle;Signal;HPM_P1;HPM_P2
2024/01/20 00:01:19;;;;;;;17.93;11.77;;;;;;;;;;5077031;28;20235;-35
2024/01/20 00:03:46;;;;;;;23.20;12.93;;;;;;;;;;5081665;28;20205;-36
2024/01/20 00:06:15;;;;;;;18.07;11.57;;;;;;;;;;5075062;28;20214;-35
2024/01/20 00:08:42;;;;;;;19.67;11.93;;;;;;;;;;5086313;28;20204;-32
2024/01/20 00:11:10;;;;;;;19.00;11.33;;;;;;;;;;5089457;28;20770;-37
2024/01/20 00:13:37;;;;;;;15.90;10.73;;;;;;;;;;5086231;28;20683;-29
2024/01/20 00:16:05;;;;;;;18.50;10.53;;;;;;;;;;5081782;28;20251;-38
2024/01/20 00:18:32;;;;;;;19.87;11.80;;;;;;;;;;5089895;28;20236;-34
2024/01/20 00:21:00;;;;;;;20.20;12.77;;;;;;;;;;5079525;28;20228;-35
2024/01/20 00:23:28;;;;;;;19.57;12.67;;;;;;;;;;5084796;28;20550;-29
2024/01/20 00:25:56;;;;;;;20.13;12.10;;;;;;;;;;5089598;28;20204;-35
2024/01/20 00:28:23;;;;;;;20.40;13.63;;;;;;;;;;5085251;28;20269;-31
2024/01/20 00:30:50;;;;;;;23.77;13.37;;;;;;;;;;5086481;28;20277;-35
2024/01/20 00:33:18;;;;;;;18.33;11.73;;;;;;;;;;5090267;28;20584;-31
2024/01/20 00:35:47;;;;;;;20.47;11.97;;;;;;;;;;5082522;28;20248;-36
2024/01/20 00:38:17;;;;;;;20.90;13.17;;;;;;;;;;5080900;28;20227;-38
2024/01/20 00:40:46;;;;;;;21.90;12.37;;;;;;;;;;5086899;28;20248;-32
2024/01/20 00:43:14;;;;;;;18.90;12.07;;;;;;;;;;5085215;28;20201;-32
2024/01/20 00:45:42;;;;;;;17.87;11.30;;;;;;;;;;5090418;28;20233;-33
2024/01/20 00:48:11;;;;;;;22.43;13.07;;;;;;;;;;5089818;28;20205;-34
2024/01/20 00:50:39;;;;;;;18.47;12.37;;;;;;;;;;5081696;28;20757;-33
2024/01/20 00:53:07;;;;;;;19.73;11.00;;;;;;;;;;5084862;28;20212;-35
2024/01/20 00:55:36;;;;;;;18.70;11.50;;;;;;;;;;5090083;28;20232;-33
2024/01/20 00:58:05;;;;;;;18.73;11.13;;;;;;;;;;5087590;28;20295;-31
2024/01/20 01:00:33;;;;;;;21.70;13.10;;;;;;;;;;5086460;28;20220;-31
2024/01/20 01:03:03;;;;;;;25.93;13.90;;;;;;;;;;5094006;28;20208;-33
2024/01/20 01:05:31;;;;;;;19.83;12.90;;;;;;;;;;5082617;28;20204;-33
2024/01/20 01:07:59;;;;;;;19.10;12.60;;;;;;;;;;5084374;28;20243;-33
2024/01/20 01:10:27;;;;;;;17.47;10.90;;;;;;;;;;5094794;28;20229;-35
2024/01/20 01:12:53;;;;;;;21.80;12.60;;;;;;;;;;5087055;28;20201;-32
2024/01/20 01:15:23;;;;;;;20.30;12.70;;;;;;;;;;5093835;28;20272;-31
2024/01/20 01:17:51;;;;;;;18.27;12.30;;;;;;;;;;5093741;28;20204;-32
2024/01/20 01:20:22;;;;;;;19.40;11.23;;;;;;;;;;5077140;28;20228;-30
2024/01/20 01:22:52;;;;;;;17.53;11.57;;;;;;;;;;5087495;28;20208;-33
2024/01/20 01:25:22;;;;;;;16.57;11.20;;;;;;;;;;5085441;28;20204;-33
2024/01/20 01:27:50;;;;;;;21.47;12.97;;;;;;;;;;5093492;28;20212;-32
2024/01/20 01:30:17;;;;;;;22.23;13.47;;;;;;;;;;5087570;28;20224;-32
2024/01/20 01:32:46;;;;;;;23.57;13.37;;;;;;;;;;5093083;28;20211;-34
2024/01/20 01:35:14;;;;;;;22.93;13.60;;;;;;;;;;5087249;28;20244;-34
2024/01/20 01:37:42;;;;;;;17.23;11.30;;;;;;;;;;5093398;28;20295;-32
2024/01/20 01:40:10;;;;;;;24.27;13.83;;;;;;;;;;5092861;28;20232;-36
2024/01/20 01:42:37;;;;;;;20.07;12.40;;;;;;;;;;5089195;28;20269;-34
2024/01/20 01:45:05;;;;;;;20.33;12.80;;;;;;;;;;5084404;28;20538;-31
2024/01/20 01:47:36;;;;;;;19.83;13.13;;;;;;;;;;5092719;28;20231;-36
2024/01/20 01:50:05;;;;;;;21.50;12.37;;;;;;;;;;5085016;28;20248;-32
2024/01/20 01:52:33;;;;;;;20.60;13.03;;;;;;;;;;5086175;28;20213;-31
2024/01/20 01:55:00;;;;;;;17.23;11.27;;;;;;;;;;5092833;28;20277;-32
2024/01/20 01:57:30;;;;;;;20.40;12.17;;;;;;;;;;5088233;28;20208;-32
2024/01/20 02:00:00;;;;;;;20.03;12.17;;;;;;;;;;5088686;28;20224;-34
2024/01/20 02:02:28;;;;;;;18.87;12.87;;;;;;;;;;5077057;28;20208;-35
2024/01/20 02:04:55;;;;;;;20.33;11.77;;;;;;;;;;5081952;28;20220;-34
2024/01/20 02:07:25;;;;;;;20.53;13.47;;;;;;;;;;5076834;28;20204;-33
2024/01/20 02:09:56;;;;;;;18.30;12.57;;;;;;;;;;5092891;28;20682;-32
2024/01/20 02:12:25;;;;;;;19.97;11.53;;;;;;;;;;5085494;28;20292;-32
2024/01/20 02:14:54;;;;;;;18.87;11.77;;;;;;;;;;5087137;28;20271;-38
2024/01/20 02:17:25;;;;;;;20.23;12.97;;;;;;;;;;5090747;28;20296;-34
2024/01/20 02:19:58;;;;;;;18.60;12.97;;;;;;;;;;5087508;28;20281;-33
2024/01/20 02:22:30;;;;;;;21.13;11.70;;;;;;;;;;5078433;28;20208;-33
2024/01/20 02:25:03;;;;;;;20.83;11.97;;;;;;;;;;5091802;28;20196;-34
2024/01/20 02:27:31;;;;;;;24.47;12.93;;;;;;;;;;5092361;28;20205;-33
2024/01/20 02:29:59;;;;;;;21.03;13.10;;;;;;;;;;5078896;28;20266;-36
2024/01/20 02:32:28;;;;;;;22.60;13.17;;;;;;;;;;5085680;28;20208;-35
2024/01/20 02:34:59;;;;;;;23.53;13.47;;;;;;;;;;5076343;28;20316;-32
2024/01/20 02:37:29;;;;;;;22.40;13.30;;;;;;;;;;5076655;28;20244;-33
2024/01/20 02:40:02;;;;;;;19.27;12.47;;;;;;;;;;5092645;28;20288;-36
2024/01/20 02:42:35;;;;;;;23.23;12.93;;;;;;;;;;5092793;28;20201;-38
2024/01/20 02:45:03;;;;;;;20.47;12.67;;;;;;;;;;5089739;28;20207;-33
2024/01/20 02:47:34;;;;;;;25.93;14.13;;;;;;;;;;5092490;28;20213;-30
2024/01/20 02:50:03;;;;;;;24.00;12.47;;;;;;;;;;5085500;28;20225;-33
2024/01/20 02:52:37;;;;;;;18.10;12.57;;;;;;;;;;5092629;28;20216;-35
2024/01/20 02:55:05;;;;;;;22.70;13.73;;;;;;;;;;5092765;28;20246;-31
2024/01/20 02:57:33;;;;;;;19.30;11.60;;;;;;;;;;5087676;28;20231;-34
2024/01/20 03:00:04;;;;;;;21.63;12.83;;;;;;;;;;5085112;28;20744;-33
2024/01/20 03:02:32;;;;;;;23.20;14.63;;;;;;;;;;5084309;28;20204;-32
2024/01/20 03:05:08;;;;;;;18.87;12.90;;;;;;;;;;5083728;28;20201;-33
2024/01/20 03:07:38;;;;;;;25.27;13.20;;;;;;;;;;5076950;28;20211;-31
2024/01/20 03:10:06;;;;;;;20.83;12.87;;;;;;;;;;5092491;28;20220;-34
2024/01/20 03:12:34;;;;;;;27.10;13.00;;;;;;;;;;5088475;28;20208;-36
2024/01/20 03:15:04;;;;;;;23.77;13.50;;;;;;;;;;5082250;28;20319;-32
2024/01/20 03:17:32;;;;;;;18.93;12.37;;;;;;;;;;5092085;28;20230;-31
2024/01/20 03:20:03;;;;;;;20.97;13.20;;;;;;;;;;5081547;28;20254;-33
2024/01/20 03:22:31;;;;;;;21.87;12.70;;;;;;;;;;5092712;28;20204;-34
2024/01/20 03:25:02;;;;;;;21.50;12.80;;;;;;;;;;5092137;28;20199;-35
2024/01/20 03:27:33;;;;;;;21.80;13.00;;;;;;;;;;5082132;28;20231;-36
2024/01/20 03:30:01;;;;;;;19.23;12.27;;;;;;;;;;5090349;28;20234;-33
2024/01/20 03:32:30;;;;;;;19.37;12.30;;;;;;;;;;5084401;28;20199;-31
2024/01/20 03:34:59;;;;;;;21.30;13.33;;;;;;;;;;5082095;28;20316;-33
2024/01/20 03:37:29;;;;;;;20.20;11.60;;;;;;;;;;5083690;28;20301;-34
2024/01/20 03:42:37;;;;;;;21.00;13.20;;;;;;;;;;5089711;28;20274;-28
2024/01/20 03:45:08;;;;;;;14.93;9.03;;;;;;;;;;5096802;28;20209;-26
2024/01/20 03:47:37;;;;;;;19.03;11.27;;;;;;;;;;5092523;28;20208;-28
2024/01/20 03:50:06;;;;;;;19.50;11.27;;;;;;;;;;5088636;28;20229;-28
2024/01/20 03:52:34;;;;;;;21.03;11.70;;;;;;;;;;5085108;28;20283;-27
2024/01/20 03:55:14;;;;;;;23.53;13.07;;;;;;;;;;5083350;28;20258;-27
2024/01/20 03:57:47;;;;;;;21.87;13.60;;;;;;;;;;5075504;28;20562;-27
2024/01/20 04:00:21;;;;;;;26.63;14.37;;;;;;;;;;5077854;28;20225;-24
2024/01/20 04:03:02;;;;;;;21.37;12.73;;;;;;;;;;5084921;28;20205;-29
2024/01/20 04:05:33;;;;;;;19.73;13.13;;;;;;;;;;5074137;28;20201;-28
2024/01/20 04:08:01;;;;;;;20.97;13.10;;;;;;;;;;5075489;28;20209;-28
2024/01/20 04:10:35;;;;;;;19.30;11.77;;;;;;;;;;5080994;28;20236;-28
2024/01/20 04:13:06;;;;;;;19.57;12.60;;;;;;;;;;5075447;28;20213;-27
2024/01/20 04:15:34;;;;;;;19.03;12.47;;;;;;;;;;5083041;28;20227;-28
2024/01/20 04:18:06;;;;;;;18.93;11.83;;;;;;;;;;5083007;28;20287;-28
2024/01/20 04:20:43;;;;;;;22.90;12.00;;;;;;;;;;5070504;28;20217;-27
2024/01/20 04:23:14;;;;;;;20.87;13.40;;;;;;;;;;5084416;28;20215;-25
2024/01/20 04:25:45;;;;;;;20.03;10.80;;;;;;;;;;5077886;28;20200;-27
2024/01/20 04:28:22;;;;;;;21.70;12.20;;;;;;;;;;5085143;28;20226;-29
2024/01/20 04:30:54;;;;;;;19.63;11.03;;;;;;;;;;5092124;28;20228;-26
2024/01/20 04:33:22;;;;;;;19.30;11.40;;;;;;;;;;5081479;28;20241;-25
2024/01/20 04:35:51;;;;;;;16.73;11.13;;;;;;;;;;5085411;28;20589;-26
2024/01/20 04:40:56;;;;;;;19.10;12.53;;;;;;;;;;5108387;28;20232;-26
2024/01/20 04:43:32;;;;;;;20.07;12.03;;;;;;;;;;5104138;28;20218;-27
2024/01/20 04:46:00;;;;;;;19.43;13.03;;;;;;;;;;5095778;28;20283;-28
2024/01/20 04:48:28;;;;;;;19.67;11.27;;;;;;;;;;5094938;28;20243;-28
2024/01/20 04:50:59;;;;;;;21.03;11.77;;;;;;;;;;5093742;28;20629;-25
2024/01/20 04:53:31;;;;;;;18.40;11.10;;;;;;;;;;5085653;28;20694;-28
2024/01/20 04:55:59;;;;;;;16.23;11.07;;;;;;;;;;5104269;28;20247;-26
2024/01/20 04:58:28;;;;;;;15.80;10.27;;;;;;;;;;5101546;28;20212;-28
2024/01/20 05:00:56;;;;;;;17.97;11.83;;;;;;;;;;5111075;28;20647;-28
2024/01/20 05:03:26;;;;;;;17.40;11.30;;;;;;;;;;5096576;28;20678;-28
2024/01/20 05:06:08;;;;;;;19.67;11.87;;;;;;;;;;5076202;28;20206;-28
2024/01/20 05:08:37;;;;;;;17.63;10.37;;;;;;;;;;5099451;28;20203;-26
2024/01/20 05:11:09;;;;;;;19.17;11.47;;;;;;;;;;5099502;28;20217;-26
2024/01/20 05:13:40;;;;;;;15.20;10.27;;;;;;;;;;5094391;28;20211;-26
2024/01/20 05:16:11;;;;;;;20.63;11.60;;;;;;;;;;5095408;28;20213;-25
2024/01/20 05:18:43;;;;;;;17.77;10.40;;;;;;;;;;5095085;28;20212;-29
2024/01/20 05:21:16;;;;;;;17.87;10.20;;;;;;;;;;5098687;28;20247;-26
2024/01/20 05:23:49;;;;;;;16.80;10.43;;;;;;;;;;5107572;28;20199;-27
2024/01/20 05:26:21;;;;;;;19.93;10.53;;;;;;;;;;5097815;28;20291;-27
2024/01/20 05:28:54;;;;;;;19.90;12.07;;;;;;;;;;5100237;28;20560;-27
2024/01/20 05:31:23;;;;;;;20.07;11.20;;;;;;;;;;5109521;28;20223;-28
2024/01/20 05:33:54;;;;;;;19.77;11.77;;;;;;;;;;5103689;28;20205;-26
2024/01/20 05:36:30;;;;;;;21.60;12.27;;;;;;;;;;5094501;28;20231;-27
2024/01/20 05:39:00;;;;;;;18.03;10.77;;;;;;;;;;5094695;28;20322;-28
2024/01/20 05:41:30;;;;;;;18.13;11.73;;;;;;;;;;5094663;28;20647;-27
2024/01/20 05:44:02;;;;;;;18.30;11.10;;;;;;;;;;5096866;28;20204;-25
2024/01/20 05:46:32;;;;;;;21.10;11.70;;;;;;;;;;5110575;28;20227;-26
2024/01/20 05:49:03;;;;;;;17.47;11.00;;;;;;;;;;5093241;28;20208;-26
2024/01/20 05:51:31;;;;;;;18.30;11.00;;;;;;;;;;5094916;28;20234;-27
2024/01/20 05:54:04;;;;;;;19.77;12.40;;;;;;;;;;5094329;28;20238;-27
2024/01/20 05:56:35;;;;;;;20.10;11.93;;;;;;;;;;5103203;28;20255;-27
2024/01/20 05:59:12;;;;;;;17.90;11.03;;;;;;;;;;5093873;28;20212;-25
2024/01/20 06:04:15;;;;;;;17.83;11.03;;;;;;;;;;5130957;27;20222;-31
2024/01/20 06:06:52;;;;;;;18.90;11.50;;;;;;;;;;5130640;27;20280;-29
2024/01/20 06:09:28;;;;;;;16.50;10.20;;;;;;;;;;5130955;27;20276;-34
2024/01/20 06:12:00;;;;;;;22.13;12.07;;;;;;;;;;5120667;27;20262;-32
2024/01/20 06:14:33;;;;;;;20.40;11.27;;;;;;;;;;5113801;27;20204;-33
2024/01/20 06:17:06;;;;;;;22.83;11.60;;;;;;;;;;5129132;27;20760;-36
2024/01/20 06:19:38;;;;;;;18.63;11.53;;;;;;;;;;5111570;27;20235;-32
2024/01/20 06:22:09;;;;;;;20.70;11.87;;;;;;;;;;5110238;28;20257;-36
2024/01/20 06:24:53;;;;;;;22.80;12.93;;;;;;;;;;5122815;27;20650;-32
2024/01/20 06:27:22;;;;;;;17.93;11.57;;;;;;;;;;5115185;27;20216;-34
2024/01/20 06:29:57;;;;;;;17.63;10.37;;;;;;;;;;5113672;27;20228;-33
2024/01/20 06:32:34;;;;;;;18.03;11.17;;;;;;;;;;5113372;27;20199;-32
2024/01/20 06:35:08;;;;;;;20.80;11.57;;;;;;;;;;5116372;27;20200;-32
2024/01/20 06:37:39;;;;;;;20.13;12.63;;;;;;;;;;5126409;27;20206;-31
2024/01/20 06:40:09;;;;;;;18.33;11.93;;;;;;;;;;5126828;27;20298;-33
2024/01/20 06:42:42;;;;;;;19.50;11.90;;;;;;;;;;5110428;27;20231;-33
2024/01/20 06:45:15;;;;;;;19.83;11.13;;;;;;;;;;5113908;28;20200;-33
2024/01/20 06:47:45;;;;;;;18.97;10.90;;;;;;;;;;5123292;27;20227;-34
2024/01/20 06:52:41;;;;;;;24.17;11.47;;;;;;;;;;5111295;28;20285;-33
2024/01/20 06:55:09;;;;;;;21.77;11.60;;;;;;;;;;5112706;28;20223;-33
2024/01/20 06:57:40;;;;;;;18.23;10.90;;;;;;;;;;5110745;28;20578;-37
2024/01/20 07:00:15;;;;;;;19.70;11.80;;;;;;;;;;5097115;28;20236;-34
2024/01/20 07:05:19;;;;;;;12.00;6.90;;;;;;;;;;738727;22;20503;-26
2024/01/20 07:07:51;;;;;;;15.43;9.67;;;;;;;;;;5106782;28;20281;-27
2024/01/20 07:10:27;;;;;;;20.93;12.60;;;;;;;;;;5101108;28;20259;-28
2024/01/20 07:13:00;;;;;;;22.03;12.60;;;;;;;;;;5091495;28;20731;-26
2024/01/20 07:15:50;;;;;;;24.50;13.27;;;;;;;;;;5095371;28;20653;-27
2024/01/20 07:18:25;;;;;;;21.83;13.40;;;;;;;;;;5097173;28;20444;-26
2024/01/20 07:21:04;;;;;;;21.67;12.77;;;;;;;;;;5086847;28;20288;-29
2024/01/20 07:23:49;;;;;;;22.03;12.27;;;;;;;;;;5091463;28;20207;-28
2024/01/20 07:26:24;;;;;;;21.63;11.37;;;;;;;;;;5093244;28;20287;-28
2024/01/20 07:28:58;;;;;;;20.20;11.87;;;;;;;;;;5092267;28;20212;-27
2024/01/20 07:31:50;;;;;;;24.77;13.03;;;;;;;;;;5094913;28;20208;-26
2024/01/20 07:34:26;;;;;;;21.47;12.47;;;;;;;;;;5090687;28;20209;-26
2024/01/20 07:36:59;;;;;;;26.10;12.10;;;;;;;;;;5088360;28;20220;-26
2024/01/20 07:39:35;;;;;;;22.37;13.53;;;;;;;;;;5090827;28;20232;-27
2024/01/20 07:42:18;;;;;;;19.77;12.10;;;;;;;;;;5088826;28;20205;-25
2024/01/20 07:44:50;;;;;;;23.97;14.60;;;;;;;;;;5090830;28;20204;-27
2024/01/20 07:47:35;;;;;;;22.93;13.80;;;;;;;;;;5088396;28;20207;-27
2024/01/20 08:05:42;;;;;;;21.10;11.80;;;;;;;;;;5127107;28;20223;-28
2024/01/20 08:08:12;;;;;;;23.03;13.87;;;;;;;;;;5136673;27;20206;-25
2024/01/20 08:10:51;;;;;;;26.00;13.77;;;;;;;;;;5122430;27;20227;-26
2024/01/20 08:18:36;;;;;;;24.47;14.03;;;;;;;;;;5135173;27;20222;-30
2024/01/20 08:21:11;;;;;;;21.97;13.00;;;;;;;;;;5127584;27;20244;-32
2024/01/20 08:23:44;;;;;;;24.27;13.47;;;;;;;;;;5119179;27;20203;-35
2024/01/20 08:26:13;;;;;;;21.80;11.90;;;;;;;;;;5122386;27;20224;-34
2024/01/20 08:28:44;;;;;;;23.33;12.77;;;;;;;;;;5130913;27;20239;-35
2024/01/20 08:31:14;;;;;;;22.50;13.90;;;;;;;;;;5126331;27;20227;-37
2024/01/20 08:33:52;;;;;;;25.80;13.53;;;;;;;;;;5118996;27;20574;-36
2024/01/20 08:36:29;;;;;;;25.93;13.00;;;;;;;;;;5128818;27;20714;-33
2024/01/20 08:39:12;;;;;;;24.93;14.67;;;;;;;;;;5122881;27;20203;-33
2024/01/20 08:41:48;;;;;;;23.63;14.07;;;;;;;;;;5127233;27;20205;-37
2024/01/20 08:44:20;;;;;;;22.33;13.00;;;;;;;;;;5127873;27;20252;-37
2024/01/20 08:46:54;;;;;;;21.50;13.33;;;;;;;;;;5123613;27;20691;-33
2024/01/20 08:49:26;;;;;;;29.10;15.37;;;;;;;;;;5137494;27;20777;-32
2024/01/20 08:52:03;;;;;;;25.47;15.67;;;;;;;;;;5140036;27;20253;-35
2024/01/20 08:54:40;;;;;;;19.70;12.50;;;;;;;;;;5124049;27;20207;-34
2024/01/20 08:57:11;;;;;;;24.67;12.63;;;;;;;;;;5125820;27;20307;-36
2024/01/20 09:00:12;;;;;;;26.20;14.03;;;;;;;;;;5132238;27;20288;-32
2024/01/20 09:03:06;;;;;;;26.00;13.87;;;;;;;;;;5125102;27;20201;-33
2024/01/20 09:05:42;;;;;;;25.33;14.37;;;;;;;;;;5121342;27;20206;-34
2024/01/20 09:08:18;;;;;;;27.37;13.87;;;;;;;;;;5126097;27;20208;-33
2024/01/20 09:10:52;;;;;;;26.17;14.93;;;;;;;;;;5373381;22;20249;-34
2024/01/20 09:13:23;;;;;;;25.20;12.73;;;;;;;;;;5129839;27;20214;-32
2024/01/20 09:15:54;;;;;;;20.97;12.53;;;;;;;;;;5132747;27;20227;-31
2024/01/20 09:18:28;;;;;;;19.73;11.13;;;;;;;;;;5133830;27;20311;-30
2024/01/20 09:21:01;;;;;;;23.57;12.20;;;;;;;;;;5119361;27;20215;-32
2024/01/20 09:23:32;;;;;;;26.97;14.67;;;;;;;;;;5137150;27;20210;-33
2024/01/20 09:26:01;;;;;;;26.10;14.40;;;;;;;;;;5123071;27;20259;-36
2024/01/20 09:28:37;;;;;;;27.73;14.90;;;;;;;;;;5130337;27;20212;-36
2024/01/20 09:31:07;;;;;;;27.97;15.70;;;;;;;;;;5120884;27;20271;-33
2024/01/20 09:33:37;;;;;;;27.47;15.40;;;;;;;;;;5135801;27;20226;-33
2024/01/20 09:36:06;;;;;;;24.37;14.97;;;;;;;;;;5124241;27;20242;-31
2024/01/20 09:38:38;;;;;;;27.67;14.23;;;;;;;;;;5135963;27;20562;-32
2024/01/20 09:41:09;;;;;;;27.17;13.20;;;;;;;;;;5145502;27;20214;-29
2024/01/20 09:43:39;;;;;;;27.40;15.87;;;;;;;;;;5137796;27;20230;-32
2024/01/20 09:46:09;;;;;;;27.83;15.03;;;;;;;;;;5127638;27;20228;-36
2024/01/20 09:48:37;;;;;;;25.63;14.63;;;;;;;;;;5137644;27;20251;-34
2024/01/20 09:51:14;;;;;;;23.23;13.10;;;;;;;;;;5113240;27;20224;-34
2024/01/20 09:53:44;;;;;;;25.93;14.93;;;;;;;;;;5132459;27;20199;-30
2024/01/20 09:56:12;;;;;;;27.90;14.87;;;;;;;;;;5133908;27;20249;-33
2024/01/20 09:58:42;;;;;;;26.77;14.97;;;;;;;;;;5126077;27;20199;-35
2024/01/20 10:01:10;;;;;;;28.87;16.67;;;;;;;;;;5202706;22;20695;-27
2024/01/20 10:03:46;;;;;;;28.03;14.43;;;;;;;;;;5125457;27;20644;-28
2024/01/20 10:06:13;;;;;;;24.30;14.57;;;;;;;;;;5122023;27;20230;-26
2024/01/20 10:11:22;;;;;;;28.23;16.50;;;;;;;;;;5318859;22;20468;-27
2024/01/20 10:13:50;;;;;;;25.60;13.80;;;;;;;;;;5097998;28;20278;-27
2024/01/20 10:16:20;;;;;;;27.07;15.73;;;;;;;;;;5101953;28;20248;-26
2024/01/20 10:18:49;;;;;;;27.93;15.80;;;;;;;;;;5098647;28;20201;-28
2024/01/20 10:21:17;;;;;;;26.50;14.87;;;;;;;;;;5108887;28;20239;-29
2024/01/20 10:23:45;;;;;;;27.23;15.37;;;;;;;;;;5102673;28;20208;-26
2024/01/20 10:26:19;;;;;;;29.20;15.10;;;;;;;;;;5106532;28;20230;-27
2024/01/20 10:29:15;;;;;;;25.80;14.73;;;;;;;;;;5096492;28;20294;-27
2024/01/20 10:31:43;;;;;;;29.37;16.13;;;;;;;;;;5103281;28;20224;-27
2024/01/20 10:34:10;;;;;;;27.07;14.80;;;;;;;;;;5108041;28;20204;-26
2024/01/20 10:36:41;;;;;;;26.67;16.17;;;;;;;;;;5109515;28;20226;-27
2024/01/20 10:39:09;;;;;;;28.13;16.37;;;;;;;;;;5105360;28;20216;-27
2024/01/20 10:41:41;;;;;;;35.60;19.40;;;;;;;;;;5105801;28;20319;-27
2024/01/20 10:44:12;;;;;;;28.83;17.97;;;;;;;;;;5101313;28;20238;-27
2024/01/20 10:46:49;;;;;;;26.27;15.90;;;;;;;;;;5107273;28;20209;-27
2024/01/20 10:49:19;;;;;;;29.50;14.57;;;;;;;;;;5102141;28;20295;-27
2024/01/20 10:51:47;;;;;;;25.83;14.40;;;;;;;;;;5104862;28;20550;-26
2024/01/20 10:54:17;;;;;;;29.73;16.23;;;;;;;;;;5107279;28;20214;-27
2024/01/20 10:56:46;;;;;;;29.17;17.03;;;;;;;;;;5103064;28;20306;-26
2024/01/20 10:59:20;;;;;;;30.57;17.30;;;;;;;;;;5101725;28;20205;-26
2024/01/20 11:01:48;;;;;;;25.23;15.50;;;;;;;;;;5104971;28;20204;-25
2024/01/20 11:04:22;;;;;;;29.47;16.07;;;;;;;;;;5097307;28;20208;-29
2024/01/20 11:06:50;;;;;;;29.63;16.50;;;;;;;;;;5106688;28;20229;-28
2024/01/20 11:09:31;;;;;;;31.23;16.97;;;;;;;;;;5107014;28;20242;-27
2024/01/20 11:12:12;;;;;;;30.33;16.63;;;;;;;;;;5096518;28;20243;-25
2024/01/20 11:14:41;;;;;;;30.03;16.03;;;;;;;;;;5098594;28;20215;-26
2024/01/20 11:17:15;;;;;;;30.27;17.07;;;;;;;;;;5110126;28;20589;-25
2024/01/20 11:19:43;;;;;;;32.83;17.63;;;;;;;;;;5096850;28;20236;-28
2024/01/20 11:22:25;;;;;;;32.73;18.07;;;;;;;;;;5101154;28;20204;-28
2024/01/20 11:24:56;;;;;;;29.73;16.17;;;;;;;;;;5100695;28;20291;-25
2024/01/20 11:27:23;;;;;;;33.33;17.03;;;;;;;;;;5097503;28;20237;-27
2024/01/20 11:29:52;;;;;;;33.07;17.03;;;;;;;;;;5102382;28;20289;-28
2024/01/20 11:32:22;;;;;;;31.83;16.70;;;;;;;;;;5105714;28;20216;-25
2024/01/20 11:34:49;;;;;;;31.47;18.00;;;;;;;;;;5099591;28;20261;-27
2024/01/20 11:37:16;;;;;;;31.47;17.50;;;;;;;;;;5097228;28;20650;-27
2024/01/20 11:39:44;;;;;;;30.33;17.13;;;;;;;;;;5096765;28;20637;-25
2024/01/20 11:42:11;;;;;;;30.03;15.83;;;;;;;;;;5097602;28;20260;-26
2024/01/20 11:44:38;;;;;;;30.47;17.70;;;;;;;;;;5095502;28;20300;-25
2024/01/20 11:47:07;;;;;;;33.63;17.60;;;;;;;;;;5095348;28;20207;-27
2024/01/20 11:49:36;;;;;;;31.03;16.57;;;;;;;;;;5100209;28;20224;-25
2024/01/20 11:52:05;;;;;;;31.13;16.97;;;;;;;;;;5100564;28;20228;-27
2024/01/20 11:54:34;;;;;;;30.07;16.83;;;;;;;;;;5094170;28;20239;-28
2024/01/20 11:57:01;;;;;;;32.30;17.33;;;;;;;;;;5101836;28;20227;-27
2024/01/20 11:59:31;;;;;;;35.23;18.73;;;;;;;;;;5091655;28;20698;-30
2024/01/20 12:01:58;;;;;;;35.57;17.80;;;;;;;;;;5094395;28;20687;-26
2024/01/20 12:04:27;;;;;;;28.90;17.97;;;;;;;;;;5092289;28;20236;-27
2024/01/20 12:06:54;;;;;;;36.73;18.53;;;;;;;;;;5101595;28;20299;-27
2024/01/20 12:09:21;;;;;;;37.60;18.83;;;;;;;;;;5099134;28;20227;-28
2024/01/20 12:11:48;;;;;;;30.67;17.07;;;;;;;;;;5096626;28;20254;-25
2024/01/20 12:14:17;;;;;;;34.20;17.50;;;;;;;;;;5101621;28;20240;-26
2024/01/20 12:16:44;;;;;;;30.43;16.73;;;;;;;;;;5094374;28;20443;-28
2024/01/20 12:19:11;;;;;;;30.23;17.43;;;;;;;;;;5093229;28;20217;-28
2024/01/20 12:21:40;;;;;;;32.67;16.93;;;;;;;;;;5098484;28;20196;-32
2024/01/20 12:24:10;;;;;;;32.40;17.83;;;;;;;;;;5096345;28;20196;-26
2024/01/20 12:26:37;;;;;;;29.17;15.87;;;;;;;;;;5097383;28;20291;-29
2024/01/20 12:29:04;;;;;;;28.40;15.43;;;;;;;;;;5094216;28;20239;-28
2024/01/20 12:31:31;;;;;;;26.27;16.17;;;;;;;;;;5098042;28;20200;-26
2024/01/20 12:34:01;;;;;;;29.43;15.70;;;;;;;;;;5100306;28;20294;-26
2024/01/20 12:36:29;;;;;;;29.47;16.60;;;;;;;;;;5098774;28;20208;-27
2024/01/20 12:38:58;;;;;;;28.93;16.90;;;;;;;;;;5097770;28;20201;-28
2024/01/20 12:41:26;;;;;;;27.90;15.97;;;;;;;;;;5101016;28;20219;-28
2024/01/20 12:43:53;;;;;;;28.63;15.37;;;;;;;;;;5099539;28;20212;-25
2024/01/20 12:46:21;;;;;;;30.53;15.33;;;;;;;;;;5099565;28;20277;-28
2024/01/20 12:48:49;;;;;;;28.43;16.33;;;;;;;;;;5104065;28;20339;-28
2024/01/20 12:51:16;;;;;;;27.50;16.00;;;;;;;;;;5102111;28;20224;-25
2024/01/20 12:53:49;;;;;;;32.87;15.67;;;;;;;;;;5107186;28;20227;-28
2024/01/20 12:56:18;;;;;;;29.83;16.90;;;;;;;;;;5107019;28;20208;-27
2024/01/20 12:58:45;;;;;;;28.13;15.10;;;;;;;;;;5102200;28;20224;-26
2024/01/20 13:01:13;;;;;;;31.03;16.60;;;;;;;;;;5104939;28;20231;-25
2024/01/20 13:03:40;;;;;;;26.97;14.83;;;;;;;;;;5104472;28;20227;-27
2024/01/20 13:06:07;;;;;;;32.57;18.13;;;;;;;;;;5106002;28;20233;-29
2024/01/20 13:08:35;;;;;;;27.43;16.17;;;;;;;;;;5108498;28;20207;-28
2024/01/20 13:11:06;;;;;;;27.90;14.63;;;;;;;;;;5112942;28;20242;-27
2024/01/20 13:13:35;;;;;;;24.97;14.17;;;;;;;;;;5106272;28;20205;-27
2024/01/20 13:16:03;;;;;;;30.03;18.37;;;;;;;;;;5110404;28;20204;-28
2024/01/20 13:18:30;;;;;;;33.60;18.73;;;;;;;;;;5115217;28;20219;-27
2024/01/20 13:20:58;;;;;;;31.23;17.37;;;;;;;;;;5103071;28;20270;-28
2024/01/20 13:23:26;;;;;;;29.93;16.97;;;;;;;;;;5114841;28;20223;-28
2024/01/20 13:25:54;;;;;;;30.13;15.73;;;;;;;;;;5114836;28;20653;-27
2024/01/20 13:28:23;;;;;;;28.17;16.07;;;;;;;;;;5114652;28;20241;-26
2024/01/20 13:30:53;;;;;;;29.37;17.33;;;;;;;;;;5101162;28;20722;-27
2024/01/20 13:33:22;;;;;;;35.43;17.13;;;;;;;;;;5114424;28;20672;-26
2024/01/20 13:35:50;;;;;;;30.00;16.67;;;;;;;;;;5102546;28;20209;-28
2024/01/20 13:38:18;;;;;;;27.23;16.00;;;;;;;;;;5107940;28;20245;-28
2024/01/20 13:40:48;;;;;;;30.37;16.00;;;;;;;;;;5108184;28;20238;-27
2024/01/20 13:43:15;;;;;;;28.10;15.80;;;;;;;;;;5103795;28;20306;-27
2024/01/20 13:45:43;;;;;;;30.80;16.67;;;;;;;;;;5109312;28;20207;-26
2024/01/20 13:48:12;;;;;;;31.77;15.90;;;;;;;;;;5107750;28;20310;-27
2024/01/20 13:50:42;;;;;;;29.30;16.67;;;;;;;;;;5102509;28;20275;-28
2024/01/20 13:53:10;;;;;;;28.57;16.67;;;;;;;;;;5113753;28;20203;-26
2024/01/20 13:55:41;;;;;;;27.30;15.70;;;;;;;;;;5104088;28;20224;-26
2024/01/20 13:58:11;;;;;;;29.23;16.27;;;;;;;;;;5109890;28;20229;-26
2024/01/20 14:00:39;;;;;;;29.13;15.23;;;;;;;;;;5107203;28;20220;-26
2024/01/20 14:03:07;;;;;;;30.47;15.80;;;;;;;;;;5114014;28;20212;-28
2024/01/20 14:05:38;;;;;;;28.60;14.90;;;;;;;;;;5193977;22;20657;-28
2024/01/20 14:08:06;;;;;;;28.40;14.83;;;;;;;;;;5065744;28;20213;-27
2024/01/20 14:10:34;;;;;;;25.87;15.57;;;;;;;;;;5060013;28;20210;-27
2024/01/20 14:13:04;;;;;;;29.37;15.90;;;;;;;;;;5056065;28;20198;-28
2024/01/20 14:15:38;;;;;;;30.67;15.13;;;;;;;;;;5054240;28;20274;-26
2024/01/20 14:18:07;;;;;;;28.50;15.90;;;;;;;;;;5042662;28;20241;-28
2024/01/20 14:20:35;;;;;;;25.13;14.47;;;;;;;;;;5042420;28;20303;-27
2024/01/20 14:23:05;;;;;;;28.27;15.17;;;;;;;;;;5055210;28;20326;-25
2024/01/20 14:25:33;;;;;;;26.33;13.87;;;;;;;;;;5056194;28;20301;-26
2024/01/20 14:28:04;;;;;;;27.13;14.27;;;;;;;;;;5039796;28;20198;-28
2024/01/20 14:30:35;;;;;;;24.70;14.50;;;;;;;;;;5048320;28;20230;-25
2024/01/20 14:33:03;;;;;;;25.50;13.93;;;;;;;;;;5058555;28;20205;-28
2024/01/20 14:35:34;;;;;;;31.33;14.83;;;;;;;;;;5041669;28;20575;-26
2024/01/20 14:38:03;;;;;;;27.07;14.17;;;;;;;;;;5054480;28;20287;-26
2024/01/20 14:40:36;;;;;;;24.70;13.87;;;;;;;;;;5052509;28;20230;-28
2024/01/20 14:43:06;;;;;;;22.87;13.30;;;;;;;;;;5737713;22;20239;-30
2024/01/20 14:45:37;;;;;;;26.57;14.40;;;;;;;;;;5102816;28;20391;-35
2024/01/20 14:48:06;;;;;;;24.97;14.00;;;;;;;;;;5104592;28;20204;-35
2024/01/20 14:50:36;;;;;;;26.17;15.47;;;;;;;;;;5099921;28;20217;-33
2024/01/20 14:53:11;;;;;;;29.23;14.33;;;;;;;;;;5111128;28;20211;-35
2024/01/20 14:55:42;;;;;;;27.60;13.90;;;;;;;;;;5103852;28;20223;-32
2024/01/20 14:58:10;;;;;;;27.57;14.53;;;;;;;;;;5093428;28;20221;-31
2024/01/20 15:00:37;;;;;;;25.67;13.53;;;;;;;;;;5101548;28;20711;-35
2024/01/20 15:03:05;;;;;;;27.00;14.63;;;;;;;;;;5096934;28;20240;-35
2024/01/20 15:08:08;;;;;;;25.77;14.13;;;;;;;;;;5071130;28;20298;-26
2024/01/20 15:10:36;;;;;;;21.30;12.67;;;;;;;;;;5076581;28;20282;-27
2024/01/20 15:13:06;;;;;;;24.13;14.07;;;;;;;;;;5071066;28;20207;-29
2024/01/20 15:15:37;;;;;;;23.53;13.27;;;;;;;;;;5066266;28;20202;-28